createdAt,value
2023-04-07T00:00:04.980Z,100.00
2023-04-07T00:03:09.039Z,100.00
2023-04-07T00:06:12.631Z,100.00
2023-04-07T00:09:16.231Z,100.00
2023-04-07T00:12:19.684Z,100.00
2023-04-07T00:15:24.620Z,100.00
2023-04-07T00:18:28.125Z,100.00
2023-04-07T00:21:31.603Z,100.00
2023-04-07T00:24:35.088Z,100.00
2023-04-07T00:27:38.713Z,100.00
2023-04-07T00:30:43.585Z,100.00
2023-04-07T00:33:48.506Z,100.00
2023-04-07T00:36:52.567Z,100.00
2023-04-07T00:39:57.237Z,100.00
2023-04-07T00:43:00.786Z,100.00
2023-04-07T00:46:05.958Z,100.00
2023-04-07T00:49:11.436Z,100.00
2023-04-07T00:52:17.132Z,100.00
2023-04-07T00:55:20.791Z,100.00
2023-04-07T00:58:24.226Z,100.00
2023-04-07T01:01:41.029Z,100.00
2023-04-07T01:04:52.650Z,100.00
2023-04-07T01:08:14.904Z,100.00
2023-04-07T01:11:26.053Z,100.00
2023-04-07T01:14:38.606Z,100.00
2023-04-07T01:17:49.565Z,100.00
2023-04-07T01:21:01.947Z,100.00
2023-04-07T01:24:43.639Z,100.00
2023-04-07T01:28:11.835Z,100.00
2023-04-07T01:31:18.481Z,100.00
2023-04-07T01:34:26.287Z,100.00
2023-04-07T01:37:30.937Z,100.00
2023-04-07T01:40:36.952Z,100.00
2023-04-07T01:43:43.903Z,100.00
2023-04-07T01:46:51.710Z,100.00
2023-04-07T01:49:57.638Z,100.00
2023-04-07T01:53:01.743Z,100.00
2023-04-07T01:56:06.360Z,100.00
2023-04-07T01:59:09.811Z,100.00
2023-04-07T02:02:14.937Z,100.00
2023-04-07T02:05:23.864Z,100.00
2023-04-07T02:08:31.161Z,100.00
2023-04-07T02:11:38.713Z,100.00
2023-04-07T02:14:43.156Z,100.00
2023-04-07T02:17:53.115Z,100.00
2023-04-07T02:20:58.461Z,100.00
2023-04-07T02:24:03.174Z,100.00
2023-04-07T02:27:06.621Z,100.00
2023-04-07T02:30:11.640Z,100.00
2023-04-07T02:33:16.652Z,100.00
2023-04-07T02:36:20.402Z,100.00
2023-04-07T02:39:23.889Z,100.00
2023-04-07T02:42:27.357Z,100.00
2023-04-07T02:45:31.028Z,100.00
2023-04-07T02:48:35.905Z,100.00
2023-04-07T02:51:39.395Z,100.00
2023-04-07T02:54:42.859Z,100.00
2023-04-07T02:57:46.521Z,100.00
2023-04-07T03:00:50.929Z,100.00
2023-04-07T03:03:56.281Z,100.00
2023-04-07T03:07:00.046Z,100.00
2023-04-07T03:10:03.641Z,100.00
2023-04-07T03:13:08.382Z,100.00
2023-04-07T03:16:13.048Z,100.00
2023-04-07T03:19:17.958Z,100.00
2023-04-07T03:22:21.589Z,100.00
2023-04-07T03:25:25.053Z,100.00
2023-04-07T03:28:28.504Z,100.00
2023-04-07T03:31:32.066Z,100.00
2023-04-07T03:34:36.956Z,100.00
2023-04-07T03:37:40.481Z,100.00
2023-04-07T03:40:43.935Z,100.00
2023-04-07T03:43:47.394Z,100.00
2023-04-07T03:46:51.273Z,100.00
2023-04-07T03:49:56.236Z,100.00
2023-04-07T03:52:59.676Z,100.00
2023-04-07T03:56:03.378Z,100.00
2023-04-07T03:59:07.522Z,100.00
2023-04-07T04:02:11.170Z,100.00
2023-04-07T04:05:16.332Z,100.00
2023-04-07T04:08:19.914Z,100.00
2023-04-07T04:11:23.638Z,100.00
2023-04-07T04:14:27.156Z,100.00
2023-04-07T04:17:31.026Z,100.00
2023-04-07T04:20:37.410Z,100.00
2023-04-07T04:23:40.988Z,100.00
2023-04-07T04:26:44.485Z,100.00
2023-04-07T04:29:48.905Z,100.00
2023-04-07T04:32:52.575Z,100.00
2023-04-07T04:35:57.550Z,100.00
2023-04-07T04:39:00.979Z,100.00
2023-04-07T04:42:04.935Z,100.00
2023-04-07T04:45:10.188Z,100.00
2023-04-07T04:48:13.692Z,100.00
2023-04-07T04:51:18.562Z,100.00
2023-04-07T04:54:22.113Z,100.00
2023-04-07T04:57:25.659Z,100.00
2023-04-07T05:00:29.351Z,100.00
2023-04-07T05:03:33.128Z,100.00
2023-04-07T05:06:38.161Z,100.00
2023-04-07T05:09:41.691Z,100.00
2023-04-07T05:12:45.557Z,100.00
2023-04-07T05:15:49.402Z,100.00
2023-04-07T05:18:52.964Z,100.00
2023-04-07T05:21:57.948Z,100.00
2023-04-07T05:25:01.616Z,100.00
2023-04-07T05:28:05.561Z,100.00
2023-04-07T05:31:09.182Z,100.00
2023-04-07T05:34:13.114Z,100.00
2023-04-07T05:37:17.944Z,100.00
2023-04-07T05:40:21.742Z,100.00
2023-04-07T05:43:25.308Z,100.00
2023-04-07T05:46:30.275Z,100.00
2023-04-07T05:49:33.755Z,100.00
2023-04-07T05:52:38.622Z,100.00
2023-04-07T05:55:44.777Z,100.00
2023-04-07T05:58:48.356Z,100.00
2023-04-07T06:01:52.023Z,100.00
2023-04-07T06:04:56.247Z,100.00
2023-04-07T06:08:01.216Z,100.00
2023-04-07T06:11:05.383Z,100.00
2023-04-07T06:14:09.190Z,100.00
2023-04-07T06:17:12.878Z,100.00
2023-04-07T06:20:16.559Z,100.00
2023-04-07T06:23:21.691Z,100.00
2023-04-07T06:26:25.350Z,100.00
2023-04-07T06:29:28.991Z,100.00
2023-04-07T06:32:33.472Z,100.00
2023-04-07T06:35:37.265Z,100.00
2023-04-07T06:38:43.827Z,100.00
2023-04-07T06:41:47.460Z,100.00
2023-04-07T06:44:50.994Z,100.00
2023-04-07T06:47:54.722Z,100.00
2023-04-07T06:50:58.392Z,100.00
2023-04-07T06:54:04.504Z,100.00
2023-04-07T06:57:12.052Z,100.00
2023-04-07T07:00:16.615Z,100.00
2023-04-07T07:03:20.792Z,100.00
2023-04-07T07:06:25.378Z,100.00
2023-04-07T07:09:31.619Z,100.00
2023-04-07T07:12:35.158Z,100.00
2023-04-07T07:15:38.743Z,100.00
2023-04-07T07:18:42.252Z,100.00
2023-04-07T07:21:46.084Z,100.00
2023-04-07T07:24:51.448Z,100.00
2023-04-07T07:27:55.000Z,100.00
2023-04-07T07:30:58.534Z,100.00
2023-04-07T07:34:02.174Z,95.13
2023-04-07T07:37:05.672Z,97.97
2023-04-07T07:40:11.495Z,97.71
2023-04-07T07:43:18.089Z,100.00
2023-04-07T07:46:22.317Z,95.33
2023-04-07T07:49:26.126Z,87.06
2023-04-07T07:52:29.642Z,89.04
2023-04-07T07:55:34.740Z,86.05
2023-04-07T07:58:38.483Z,82.47
2023-04-07T08:01:42.062Z,87.87
2023-04-07T08:04:46.013Z,78.71
2023-04-07T08:07:50.438Z,76.49
2023-04-07T08:10:56.003Z,71.51
2023-04-07T08:13:59.555Z,68.99
2023-04-07T08:17:03.248Z,79.21
2023-04-07T08:20:10.427Z,75.63
2023-04-07T08:23:14.106Z,72.40
2023-04-07T08:26:19.195Z,71.33
2023-04-07T08:29:22.690Z,72.82
2023-04-07T08:32:26.340Z,72.51
2023-04-07T08:35:29.982Z,73.41
2023-04-07T08:38:33.524Z,69.05
2023-04-07T08:41:40.977Z,64.40
2023-04-07T08:44:47.058Z,63.91
2023-04-07T08:47:56.834Z,63.95
2023-04-07T08:51:05.835Z,62.27
2023-04-07T08:54:13.392Z,66.97
2023-04-07T08:57:19.581Z,69.74
2023-04-07T09:00:23.315Z,61.55
2023-04-07T09:03:28.876Z,61.28
2023-04-07T09:06:33.241Z,56.55
2023-04-07T09:09:36.883Z,56.29
2023-04-07T09:12:42.073Z,54.44
2023-04-07T09:15:46.155Z,55.91
2023-04-07T09:18:49.796Z,54.86
2023-04-07T09:21:54.533Z,53.95
2023-04-07T09:25:13.042Z,53.84
2023-04-07T09:28:17.968Z,53.73
2023-04-07T09:31:22.360Z,56.36
2023-04-07T09:34:28.838Z,58.57
2023-04-07T09:37:32.569Z,57.65
2023-04-07T09:40:37.417Z,55.38
2023-04-07T09:43:46.101Z,55.97
2023-04-07T09:46:52.750Z,57.06
2023-04-07T09:49:59.452Z,56.59
2023-04-07T09:53:04.745Z,52.55
2023-04-07T09:56:10.002Z,52.99
2023-04-07T09:59:18.434Z,52.11
2023-04-07T10:02:23.303Z,50.82
2023-04-07T10:05:28.024Z,50.85
2023-04-07T10:08:35.180Z,51.63
2023-04-07T10:11:39.249Z,51.55
2023-04-07T10:14:47.205Z,51.23
2023-04-07T10:17:52.270Z,54.07
2023-04-07T10:20:57.953Z,49.53
2023-04-07T10:24:20.194Z,48.69
2023-04-07T10:27:35.253Z,48.28
2023-04-07T10:30:42.098Z,47.32
2023-04-07T10:33:52.368Z,47.41
2023-04-07T10:37:14.427Z,48.47
2023-04-07T10:40:31.401Z,47.85
2023-04-07T10:43:45.024Z,48.33
2023-04-07T10:47:07.751Z,47.63
2023-04-07T10:50:22.859Z,48.31
2023-04-07T10:53:26.366Z,48.96
2023-04-07T10:57:21.312Z,48.71
2023-04-07T11:00:25.514Z,49.58
2023-04-07T11:03:32.596Z,50.60
2023-04-07T11:06:36.286Z,49.01
2023-04-07T11:09:39.918Z,48.24
2023-04-07T11:12:43.857Z,47.23
2023-04-07T11:15:52.259Z,47.87
2023-04-07T11:18:59.138Z,49.17
2023-04-07T11:25:27.779Z,47.93
2023-04-07T11:28:32.538Z,48.79
2023-04-07T11:31:36.416Z,48.60
2023-04-07T11:34:41.777Z,47.79
2023-04-07T11:37:45.736Z,47.15
2023-04-07T11:40:49.644Z,48.13
2023-04-07T11:44:07.471Z,46.81
2023-04-07T11:47:10.971Z,47.05
2023-04-07T11:50:16.122Z,46.77
2023-04-07T11:53:30.576Z,47.88
2023-04-07T11:56:46.138Z,45.35
2023-04-07T11:59:49.847Z,47.45
2023-04-07T12:02:53.720Z,45.75
2023-04-07T12:05:58.786Z,45.66
2023-04-07T12:09:03.654Z,47.30
2023-04-07T12:12:10.539Z,46.71
2023-04-07T12:15:14.339Z,46.19
2023-04-07T12:18:19.189Z,46.77
2023-04-07T12:21:24.481Z,46.39
2023-04-07T12:24:28.661Z,46.02
2023-04-07T12:27:42.777Z,46.29
2023-04-07T12:30:47.441Z,45.38
2023-04-07T12:33:51.533Z,45.08
2023-04-07T12:36:56.561Z,44.99
2023-04-07T12:40:00.719Z,45.67
2023-04-07T12:43:04.330Z,45.98
2023-04-07T12:46:07.961Z,44.56
2023-04-07T12:49:11.688Z,44.84
2023-04-07T12:52:16.940Z,44.98
2023-04-07T12:55:20.632Z,44.83
2023-04-07T12:58:24.593Z,44.91
2023-04-07T13:01:28.358Z,44.34
2023-04-07T13:04:32.327Z,44.58
2023-04-07T13:07:37.991Z,45.33
2023-04-07T13:10:41.561Z,45.16
2023-04-07T13:13:45.494Z,45.85
2023-04-07T13:16:49.631Z,46.00
2023-04-07T13:19:53.230Z,46.50
2023-04-07T13:23:07.865Z,45.36
2023-04-07T13:26:13.101Z,46.15
2023-04-07T13:29:17.534Z,45.96
2023-04-07T13:32:21.145Z,44.96
2023-04-07T13:35:26.031Z,44.70
2023-04-07T13:38:31.009Z,44.49
2023-04-07T13:41:34.720Z,43.21
2023-04-07T13:44:39.673Z,43.45
2023-04-07T13:47:43.317Z,43.65
2023-04-07T13:50:46.990Z,42.89
2023-04-07T13:53:52.027Z,44.05
2023-04-07T13:56:55.682Z,43.33
2023-04-07T13:59:59.275Z,42.32
2023-04-07T14:03:04.399Z,43.21
2023-04-07T14:06:08.138Z,42.73
2023-04-07T14:09:12.935Z,43.27
2023-04-07T14:12:17.224Z,43.07
2023-04-07T14:15:20.703Z,41.85
2023-04-07T14:18:25.138Z,42.17
2023-04-07T14:21:28.696Z,41.61
2023-04-07T14:24:33.773Z,41.63
2023-04-07T14:27:37.281Z,41.64
2023-04-07T14:30:40.817Z,42.46
2023-04-07T14:33:44.619Z,42.64
2023-04-07T14:36:55.742Z,41.84
2023-04-07T14:40:03.089Z,42.63
2023-04-07T14:43:07.920Z,43.09
2023-04-07T14:46:12.546Z,41.32
2023-04-07T14:49:16.448Z,41.08
2023-04-07T14:52:20.654Z,40.67
2023-04-07T14:55:26.232Z,40.39
2023-04-07T14:58:29.791Z,41.79
2023-04-07T15:01:33.534Z,42.71
2023-04-07T15:04:37.246Z,41.48
2023-04-07T15:07:40.832Z,41.68
2023-04-07T15:10:46.032Z,41.82
2023-04-07T15:13:50.274Z,41.68
2023-04-07T15:16:54.205Z,41.33
2023-04-07T15:19:57.825Z,41.33
2023-04-07T15:23:01.716Z,41.99
2023-04-07T15:26:07.157Z,42.04
2023-04-07T15:29:11.772Z,42.78
2023-04-07T15:32:15.401Z,42.59
2023-04-07T15:35:20.237Z,42.72
2023-04-07T15:38:23.787Z,42.77
2023-04-07T15:41:28.759Z,43.49
2023-04-07T15:44:39.418Z,43.23
2023-04-07T15:47:44.164Z,42.81
2023-04-07T15:50:48.029Z,42.98
2023-04-07T15:53:51.840Z,42.96
2023-04-07T15:56:56.737Z,43.04
2023-04-07T16:00:00.305Z,45.56
2023-04-07T16:03:04.158Z,45.05
2023-04-07T16:06:07.843Z,44.57
2023-04-07T16:09:11.530Z,44.12
2023-04-07T16:12:16.646Z,44.54
2023-04-07T16:15:41.073Z,43.45
2023-04-07T16:18:45.188Z,42.76
2023-04-07T16:21:48.658Z,42.39
2023-04-07T16:24:52.213Z,43.05
2023-04-07T16:27:58.329Z,43.40
2023-04-07T16:31:02.588Z,43.56
2023-04-07T16:34:06.216Z,42.88
2023-04-07T16:37:09.689Z,43.25
2023-04-07T16:40:14.507Z,44.15
2023-04-07T16:43:19.734Z,43.89
2023-04-07T16:46:25.969Z,43.70
2023-04-07T16:49:29.863Z,43.37
2023-04-07T16:52:33.923Z,43.94
2023-04-07T16:55:37.717Z,43.62
2023-04-07T16:58:42.720Z,43.90
2023-04-07T17:01:46.247Z,44.38
2023-04-07T17:04:49.972Z,44.43
2023-04-07T17:07:54.344Z,44.83
2023-04-07T17:10:59.247Z,44.32
2023-04-07T17:14:04.197Z,45.18
2023-04-07T17:17:07.792Z,44.94
2023-04-07T17:20:13.391Z,46.27
2023-04-07T17:23:17.630Z,45.81
2023-04-07T17:26:21.279Z,46.08
2023-04-07T17:29:29.230Z,45.87
2023-04-07T17:32:32.842Z,46.14
2023-04-07T17:35:36.909Z,47.11
2023-04-07T17:38:40.461Z,47.57
2023-04-07T17:41:43.968Z,48.10
2023-04-07T17:44:52.761Z,48.61
2023-04-07T17:47:56.397Z,52.24
2023-04-07T17:51:00.123Z,100.00
2023-04-07T17:54:03.767Z,100.00
2023-04-07T17:57:08.363Z,100.00
2023-04-07T18:00:14.297Z,100.00
2023-04-07T18:03:19.246Z,100.00
2023-04-07T18:06:22.905Z,100.00
2023-04-07T18:09:26.800Z,100.00
2023-04-07T18:12:31.956Z,100.00
2023-04-07T18:15:37.213Z,100.00
2023-04-07T18:18:40.824Z,100.00
2023-04-07T18:21:44.452Z,100.00
2023-04-07T18:24:48.499Z,100.00
2023-04-07T18:27:52.328Z,100.00
2023-04-07T18:31:06.199Z,100.00
2023-04-07T18:34:10.891Z,100.00
2023-04-07T18:37:14.988Z,100.00
2023-04-07T18:40:18.995Z,100.00
2023-04-07T18:43:22.721Z,100.00
2023-04-07T18:46:28.413Z,100.00
2023-04-07T18:49:32.146Z,100.00
2023-04-07T18:52:35.852Z,100.00
2023-04-07T18:55:39.769Z,100.00
2023-04-07T18:58:46.094Z,100.00
2023-04-07T19:01:52.221Z,100.00
2023-04-07T19:04:56.177Z,100.00
2023-04-07T19:08:00.402Z,100.00
2023-04-07T19:11:05.294Z,100.00
2023-04-07T19:14:08.812Z,100.00
2023-04-07T19:17:13.792Z,100.00
2023-04-07T19:20:17.380Z,100.00
2023-04-07T19:23:21.275Z,100.00
2023-04-07T19:26:25.017Z,100.00
2023-04-07T19:29:28.560Z,100.00
2023-04-07T19:32:33.963Z,100.00
2023-04-07T19:35:39.145Z,100.00
2023-04-07T19:38:42.732Z,100.00
2023-04-07T19:41:46.464Z,100.00
2023-04-07T19:44:50.380Z,100.00
2023-04-07T19:47:58.140Z,100.00
2023-04-07T19:51:01.867Z,100.00
2023-04-07T19:54:05.403Z,100.00
2023-04-07T19:57:08.992Z,100.00
2023-04-07T20:00:13.950Z,100.00
2023-04-07T20:03:19.705Z,100.00
2023-04-07T20:06:27.584Z,100.00
2023-04-07T20:09:31.075Z,100.00
2023-04-07T20:12:34.601Z,100.00
2023-04-07T20:15:38.130Z,100.00
2023-04-07T20:18:42.992Z,100.00
2023-04-07T20:21:46.677Z,100.00
2023-04-07T20:24:50.472Z,100.00
2023-04-07T20:27:53.981Z,100.00
2023-04-07T20:30:57.465Z,100.00
2023-04-07T20:34:03.506Z,100.00
2023-04-07T20:37:07.273Z,100.00
2023-04-07T20:40:12.900Z,100.00
2023-04-07T20:43:18.244Z,100.00
2023-04-07T20:46:22.141Z,100.00
2023-04-07T20:49:27.082Z,100.00
2023-04-07T20:52:30.644Z,100.00
2023-04-07T20:55:35.669Z,100.00
2023-04-07T20:58:39.248Z,100.00
2023-04-07T21:01:42.781Z,100.00
2023-04-07T21:04:48.006Z,100.00
2023-04-07T21:07:51.448Z,100.00
2023-04-07T21:10:55.875Z,100.00
2023-04-07T21:13:59.364Z,100.00
2023-04-07T21:17:03.048Z,100.00
2023-04-07T21:20:10.157Z,100.00
2023-04-07T21:23:13.734Z,100.00
2023-04-07T21:26:17.360Z,100.00
2023-04-07T21:29:22.805Z,100.00
2023-04-07T21:32:26.700Z,100.00
2023-04-07T21:35:31.729Z,100.00
2023-04-07T21:38:35.263Z,100.00
2023-04-07T21:41:38.883Z,100.00
2023-04-07T21:44:42.698Z,100.00
2023-04-07T21:47:46.610Z,100.00
2023-04-07T21:50:52.628Z,100.00
2023-04-07T21:53:56.361Z,100.00
2023-04-07T21:57:01.072Z,100.00
2023-04-07T22:00:05.247Z,100.00
2023-04-07T22:03:08.870Z,100.00
2023-04-07T22:06:14.236Z,100.00
2023-04-07T22:09:17.966Z,100.00
2023-04-07T22:12:21.474Z,100.00
2023-04-07T22:15:25.006Z,100.00
2023-04-07T22:18:28.528Z,100.00
2023-04-07T22:21:33.494Z,100.00
2023-04-07T22:24:36.971Z,100.00
2023-04-07T22:27:40.746Z,100.00
2023-04-07T22:30:44.331Z,100.00
2023-04-07T22:33:48.087Z,100.00
2023-04-07T22:36:52.907Z,100.00
2023-04-07T22:39:56.412Z,100.00
2023-04-07T22:42:59.917Z,100.00
2023-04-07T22:46:03.606Z,100.00
2023-04-07T22:49:07.488Z,100.00
2023-04-07T22:52:12.397Z,100.00
2023-04-07T22:55:16.421Z,100.00
2023-04-07T22:58:20.045Z,100.00
2023-04-07T23:01:23.605Z,100.00
2023-04-07T23:04:27.319Z,100.00
2023-04-07T23:07:32.393Z,100.00
2023-04-07T23:10:36.249Z,100.00
2023-04-07T23:13:39.697Z,100.00
2023-04-07T23:16:43.380Z,100.00
2023-04-07T23:19:47.083Z,100.00
2023-04-07T23:22:52.023Z,100.00
2023-04-07T23:25:55.746Z,100.00
2023-04-07T23:28:59.285Z,100.00
2023-04-07T23:32:03.144Z,100.00
2023-04-07T23:35:07.699Z,100.00
2023-04-07T23:38:12.605Z,100.00
2023-04-07T23:41:16.369Z,100.00
2023-04-07T23:44:19.924Z,100.00
2023-04-07T23:47:23.522Z,100.00
2023-04-07T23:50:27.915Z,100.00
2023-04-07T23:53:32.824Z,100.00
2023-04-07T23:56:36.740Z,100.00
2023-04-07T23:59:40.292Z,100.00
